sensor_id;sensor_type;location;lat;lon;timestamp;temperature;humidity
23633;DHT22;11993;48.748;9.166;2022-12-18T00:01:05;-3269.90;83.00
23633;DHT22;11993;48.748;9.166;2022-12-18T00:03:38;-3269.90;83.20
23633;DHT22;11993;48.748;9.166;2022-12-18T00:06:04;-3269.90;83.30
23633;DHT22;11993;48.748;9.166;2022-12-18T00:08:29;-3269.70;82.90
23633;DHT22;11993;48.748;9.166;2022-12-18T00:10:55;-3269.60;83.30
23633;DHT22;11993;48.748;9.166;2022-12-18T00:13:28;-3269.50;83.80
23633;DHT22;11993;48.748;9.166;2022-12-18T00:15:53;-3269.60;84.00
23633;DHT22;11993;48.748;9.166;2022-12-18T00:18:19;-3269.60;84.20
23633;DHT22;11993;48.748;9.166;2022-12-18T00:20:44;-3269.60;84.30
23633;DHT22;11993;48.748;9.166;2022-12-18T00:23:10;-3269.60;84.20
23633;DHT22;11993;48.748;9.166;2022-12-18T00:25:36;-3269.60;83.90
23633;DHT22;11993;48.748;9.166;2022-12-18T00:28:03;-3269.50;84.10
23633;DHT22;11993;48.748;9.166;2022-12-18T00:30:29;-3269.60;84.10
23633;DHT22;11993;48.748;9.166;2022-12-18T00:32:55;-3269.50;84.30
23633;DHT22;11993;48.748;9.166;2022-12-18T00:35:20;-3269.40;84.30
23633;DHT22;11993;48.748;9.166;2022-12-18T00:37:46;-3269.40;84.30
23633;DHT22;11993;48.748;9.166;2022-12-18T00:40:12;-3269.30;84.40
23633;DHT22;11993;48.748;9.166;2022-12-18T00:42:37;-3269.50;84.40
23633;DHT22;11993;48.748;9.166;2022-12-18T00:45:26;-3269.30;84.40
23633;DHT22;11993;48.748;9.166;2022-12-18T00:47:51;-3269.20;84.30
23633;DHT22;11993;48.748;9.166;2022-12-18T00:50:17;-3269.20;84.20
23633;DHT22;11993;48.748;9.166;2022-12-18T00:52:43;-3269.10;84.50
23633;DHT22;11993;48.748;9.166;2022-12-18T00:55:09;-3269.00;84.70
23633;DHT22;11993;48.748;9.166;2022-12-18T00:57:35;-3269.20;84.80
23633;DHT22;11993;48.748;9.166;2022-12-18T01:00:01;-3269.10;84.60
23633;DHT22;11993;48.748;9.166;2022-12-18T01:02:26;-3268.90;84.40
23633;DHT22;11993;48.748;9.166;2022-12-18T01:04:52;-3269.10;84.20
23633;DHT22;11993;48.748;9.166;2022-12-18T01:07:17;-3268.80;84.10
23633;DHT22;11993;48.748;9.166;2022-12-18T01:09:43;-3268.80;84.50
23633;DHT22;11993;48.748;9.166;2022-12-18T01:12:08;-3268.90;84.70
23633;DHT22;11993;48.748;9.166;2022-12-18T01:14:34;-3269.00;84.40
23633;DHT22;11993;48.748;9.166;2022-12-18T01:16:59;-3268.80;84.50
23633;DHT22;11993;48.748;9.166;2022-12-18T01:19:27;-3268.80;85.30
23633;DHT22;11993;48.748;9.166;2022-12-18T01:21:53;-3268.90;85.20
23633;DHT22;11993;48.748;9.166;2022-12-18T01:24:19;-3268.90;85.30
23633;DHT22;11993;48.748;9.166;2022-12-18T01:26:45;-3269.00;85.30
23633;DHT22;11993;48.748;9.166;2022-12-18T01:29:10;-3268.90;85.40
23633;DHT22;11993;48.748;9.166;2022-12-18T01:31:36;-3269.00;85.20
23633;DHT22;11993;48.748;9.166;2022-12-18T01:34:03;-3269.20;84.90
23633;DHT22;11993;48.748;9.166;2022-12-18T01:36:31;-3269.20;84.80
23633;DHT22;11993;48.748;9.166;2022-12-18T01:39:00;-3269.20;84.90
23633;DHT22;11993;48.748;9.166;2022-12-18T01:41:27;-3269.20;84.80
23633;DHT22;11993;48.748;9.166;2022-12-18T01:47:42;-3269.10;84.80
23633;DHT22;11993;48.748;9.166;2022-12-18T01:50:28;-3269.10;84.50
23633;DHT22;11993;48.748;9.166;2022-12-18T01:53:14;-3269.20;84.50
23633;DHT22;11993;48.748;9.166;2022-12-18T01:55:47;-3269.30;84.40
23633;DHT22;11993;48.748;9.166;2022-12-18T01:58:13;-3269.30;84.30
23633;DHT22;11993;48.748;9.166;2022-12-18T02:00:40;-3269.30;84.10
23633;DHT22;11993;48.748;9.166;2022-12-18T02:03:05;-3269.30;84.40
23633;DHT22;11993;48.748;9.166;2022-12-18T02:14:08;-3269.40;84.40
23633;DHT22;11993;48.748;9.166;2022-12-18T02:19:21;-3269.50;83.40
23633;DHT22;11993;48.748;9.166;2022-12-18T02:22:14;-3269.60;83.40
23633;DHT22;11993;48.748;9.166;2022-12-18T02:27:19;-3269.60;82.70
23633;DHT22;11993;48.748;9.166;2022-12-18T02:29:51;-3269.40;82.90
23633;DHT22;11993;48.748;9.166;2022-12-18T02:32:22;-3269.40;82.80
23633;DHT22;11993;48.748;9.166;2022-12-18T02:34:51;-3269.30;82.50
23633;DHT22;11993;48.748;9.166;2022-12-18T02:37:18;-3269.20;82.50
23633;DHT22;11993;48.748;9.166;2022-12-18T02:39:47;-3269.30;82.90
23633;DHT22;11993;48.748;9.166;2022-12-18T02:42:14;-3269.30;83.00
23633;DHT22;11993;48.748;9.166;2022-12-18T02:44:48;-3269.30;82.40
23633;DHT22;11993;48.748;9.166;2022-12-18T02:47:17;-3269.20;82.10
23633;DHT22;11993;48.748;9.166;2022-12-18T02:49:57;-3269.30;82.10
23633;DHT22;11993;48.748;9.166;2022-12-18T02:58:22;-3269.10;82.30
23633;DHT22;11993;48.748;9.166;2022-12-18T03:06:04;-3269.00;82.50
23633;DHT22;11993;48.748;9.166;2022-12-18T03:08:39;-3269.10;81.90
23633;DHT22;11993;48.748;9.166;2022-12-18T03:11:10;-3269.10;82.00
23633;DHT22;11993;48.748;9.166;2022-12-18T03:13:51;-3269.20;82.10
23633;DHT22;11993;48.748;9.166;2022-12-18T03:16:24;-3269.10;82.00
23633;DHT22;11993;48.748;9.166;2022-12-18T03:19:03;-3269.10;81.90
23633;DHT22;11993;48.748;9.166;2022-12-18T03:21:41;-3269.10;81.90
23633;DHT22;11993;48.748;9.166;2022-12-18T03:24:08;-3269.00;81.80
23633;DHT22;11993;48.748;9.166;2022-12-18T03:26:35;-3269.10;81.40
23633;DHT22;11993;48.748;9.166;2022-12-18T03:29:12;-3269.10;81.20
23633;DHT22;11993;48.748;9.166;2022-12-18T03:31:42;-3269.30;81.10
23633;DHT22;11993;48.748;9.166;2022-12-18T03:34:17;-3268.90;80.70
23633;DHT22;11993;48.748;9.166;2022-12-18T03:36:44;-3269.00;81.10
23633;DHT22;11993;48.748;9.166;2022-12-18T03:39:10;-3269.00;80.90
23633;DHT22;11993;48.748;9.166;2022-12-18T03:41:52;-3269.10;80.70
23633;DHT22;11993;48.748;9.166;2022-12-18T03:44:43;-3269.00;80.50
23633;DHT22;11993;48.748;9.166;2022-12-18T03:47:36;-3268.70;81.00
23633;DHT22;11993;48.748;9.166;2022-12-18T03:50:29;-3268.60;81.40
23633;DHT22;11993;48.748;9.166;2022-12-18T03:55:37;-3268.80;81.10
23633;DHT22;11993;48.748;9.166;2022-12-18T03:58:06;-3268.60;80.50
23633;DHT22;11993;48.748;9.166;2022-12-18T04:00:33;-3268.60;80.20
23633;DHT22;11993;48.748;9.166;2022-12-18T04:03:00;-3268.70;80.30
23633;DHT22;11993;48.748;9.166;2022-12-18T04:05:28;-3268.50;80.30
23633;DHT22;11993;48.748;9.166;2022-12-18T04:07:56;-3268.10;80.70
23633;DHT22;11993;48.748;9.166;2022-12-18T04:10:22;-3268.20;81.00
23633;DHT22;11993;48.748;9.166;2022-12-18T04:12:48;-3268.10;81.00
23633;DHT22;11993;48.748;9.166;2022-12-18T04:15:13;-3268.40;80.80
23633;DHT22;11993;48.748;9.166;2022-12-18T04:17:46;-3268.10;80.80
23633;DHT22;11993;48.748;9.166;2022-12-18T04:20:13;-3268.10;81.20
23633;DHT22;11993;48.748;9.166;2022-12-18T04:22:38;-3268.00;80.90
23633;DHT22;11993;48.748;9.166;2022-12-18T04:25:04;-3268.10;80.80
23633;DHT22;11993;48.748;9.166;2022-12-18T04:27:30;-3268.10;80.50
23633;DHT22;11993;48.748;9.166;2022-12-18T04:29:55;-3267.80;81.20
23633;DHT22;11993;48.748;9.166;2022-12-18T04:32:21;-3267.80;81.50
23633;DHT22;11993;48.748;9.166;2022-12-18T04:34:46;-3267.90;80.80
23633;DHT22;11993;48.748;9.166;2022-12-18T04:37:13;-3267.80;80.70
23633;DHT22;11993;48.748;9.166;2022-12-18T04:39:39;-3267.70;80.80
23633;DHT22;11993;48.748;9.166;2022-12-18T04:42:05;-3267.70;80.80
23633;DHT22;11993;48.748;9.166;2022-12-18T04:44:30;-3267.50;80.30
23633;DHT22;11993;48.748;9.166;2022-12-18T04:46:56;-3267.20;81.40
23633;DHT22;11993;48.748;9.166;2022-12-18T04:49:21;-3267.50;81.00
23633;DHT22;11993;48.748;9.166;2022-12-18T04:51:47;-3267.40;80.60
23633;DHT22;11993;48.748;9.166;2022-12-18T04:54:12;-3267.50;80.50
23633;DHT22;11993;48.748;9.166;2022-12-18T04:56:38;-3267.20;80.90
23633;DHT22;11993;48.748;9.166;2022-12-18T04:59:04;-3267.40;81.40
23633;DHT22;11993;48.748;9.166;2022-12-18T05:01:30;-3267.40;81.30
23633;DHT22;11993;48.748;9.166;2022-12-18T05:03:55;-3267.20;81.40
23633;DHT22;11993;48.748;9.166;2022-12-18T05:06:21;-3267.00;81.50
23633;DHT22;11993;48.748;9.166;2022-12-18T05:08:46;-3267.10;81.40
23633;DHT22;11993;48.748;9.166;2022-12-18T05:11:13;-3267.10;81.40
23633;DHT22;11993;48.748;9.166;2022-12-18T05:13:41;-3267.10;81.20
23633;DHT22;11993;48.748;9.166;2022-12-18T05:16:07;-3267.10;80.90
23633;DHT22;11993;48.748;9.166;2022-12-18T05:18:33;-3267.10;81.40
23633;DHT22;11993;48.748;9.166;2022-12-18T05:20:59;-3267.00;80.90
23633;DHT22;11993;48.748;9.166;2022-12-18T05:23:25;-3267.00;81.20
23633;DHT22;11993;48.748;9.166;2022-12-18T05:28:17;-3267.10;81.60
23633;DHT22;11993;48.748;9.166;2022-12-18T05:30:51;-3267.10;81.30
23633;DHT22;11993;48.748;9.166;2022-12-18T05:33:18;-3267.10;81.00
23633;DHT22;11993;48.748;9.166;2022-12-18T05:35:43;-3267.10;80.90
23633;DHT22;11993;48.748;9.166;2022-12-18T05:38:09;-3267.10;81.10
23633;DHT22;11993;48.748;9.166;2022-12-18T05:40:35;-3267.10;81.40
23633;DHT22;11993;48.748;9.166;2022-12-18T05:43:04;-3267.20;81.30
23633;DHT22;11993;48.748;9.166;2022-12-18T05:45:30;-3267.30;81.20
23633;DHT22;11993;48.748;9.166;2022-12-18T05:47:55;-3267.20;81.20
23633;DHT22;11993;48.748;9.166;2022-12-18T05:50:21;-3267.40;81.40
23633;DHT22;11993;48.748;9.166;2022-12-18T05:52:46;-3267.30;81.10
23633;DHT22;11993;48.748;9.166;2022-12-18T05:55:12;-3267.40;81.20
23633;DHT22;11993;48.748;9.166;2022-12-18T05:57:38;-3267.40;81.40
23633;DHT22;11993;48.748;9.166;2022-12-18T06:00:04;-3267.50;81.60
23633;DHT22;11993;48.748;9.166;2022-12-18T06:02:29;-3267.60;81.60
23633;DHT22;11993;48.748;9.166;2022-12-18T06:04:55;-3267.60;81.30
23633;DHT22;11993;48.748;9.166;2022-12-18T06:07:20;-3267.60;81.50
23633;DHT22;11993;48.748;9.166;2022-12-18T06:09:46;-3267.60;81.40
23633;DHT22;11993;48.748;9.166;2022-12-18T06:12:11;-3267.60;81.80
23633;DHT22;11993;48.748;9.166;2022-12-18T06:14:37;-3267.70;81.90
23633;DHT22;11993;48.748;9.166;2022-12-18T06:17:03;-3267.80;82.00
23633;DHT22;11993;48.748;9.166;2022-12-18T06:19:28;-3267.60;82.30
23633;DHT22;11993;48.748;9.166;2022-12-18T06:21:54;-3267.80;82.60
23633;DHT22;11993;48.748;9.166;2022-12-18T06:24:20;-3267.70;82.40
23633;DHT22;11993;48.748;9.166;2022-12-18T06:26:45;-3267.80;83.00
23633;DHT22;11993;48.748;9.166;2022-12-18T06:29:11;-3267.80;82.80
23633;DHT22;11993;48.748;9.166;2022-12-18T06:31:36;-3267.90;82.80
23633;DHT22;11993;48.748;9.166;2022-12-18T06:34:04;-3267.90;82.70
23633;DHT22;11993;48.748;9.166;2022-12-18T06:36:29;-3267.90;82.20
23633;DHT22;11993;48.748;9.166;2022-12-18T06:38:56;-3267.80;81.70
23633;DHT22;11993;48.748;9.166;2022-12-18T06:41:22;-3267.80;82.00
23633;DHT22;11993;48.748;9.166;2022-12-18T06:43:48;-3267.90;81.80
23633;DHT22;11993;48.748;9.166;2022-12-18T06:46:13;-3268.00;81.60
23633;DHT22;11993;48.748;9.166;2022-12-18T06:48:39;-3268.10;81.50
23633;DHT22;11993;48.748;9.166;2022-12-18T06:51:05;-3268.00;81.20
23633;DHT22;11993;48.748;9.166;2022-12-18T06:53:32;-3268.10;81.40
23633;DHT22;11993;48.748;9.166;2022-12-18T06:56:05;-3268.10;81.50
23633;DHT22;11993;48.748;9.166;2022-12-18T06:58:31;-3268.20;81.40
23633;DHT22;11993;48.748;9.166;2022-12-18T07:01:05;-3268.30;81.40
23633;DHT22;11993;48.748;9.166;2022-12-18T07:03:31;-3268.30;81.20
23633;DHT22;11993;48.748;9.166;2022-12-18T07:05:57;-3268.30;80.90
23633;DHT22;11993;48.748;9.166;2022-12-18T07:08:23;-3268.30;81.20
23633;DHT22;11993;48.748;9.166;2022-12-18T07:10:48;-3268.10;81.60
23633;DHT22;11993;48.748;9.166;2022-12-18T07:13:17;-3268.20;81.50
23633;DHT22;11993;48.748;9.166;2022-12-18T07:15:43;-3268.20;81.70
23633;DHT22;11993;48.748;9.166;2022-12-18T07:18:09;-3268.40;81.30
23633;DHT22;11993;48.748;9.166;2022-12-18T07:20:34;-3268.40;80.90
23633;DHT22;11993;48.748;9.166;2022-12-18T07:23:02;-3268.40;80.80
23633;DHT22;11993;48.748;9.166;2022-12-18T07:25:28;-3268.40;81.00
23633;DHT22;11993;48.748;9.166;2022-12-18T07:27:54;-3268.50;80.70
23633;DHT22;11993;48.748;9.166;2022-12-18T07:30:19;-3268.50;80.60
23633;DHT22;11993;48.748;9.166;2022-12-18T07:32:45;-3268.50;81.30
23633;DHT22;11993;48.748;9.166;2022-12-18T07:35:11;-3268.90;81.10
23633;DHT22;11993;48.748;9.166;2022-12-18T07:37:37;-3269.00;80.90
23633;DHT22;11993;48.748;9.166;2022-12-18T07:40:03;-3269.10;80.20
23633;DHT22;11993;48.748;9.166;2022-12-18T07:42:28;-3268.90;81.00
23633;DHT22;11993;48.748;9.166;2022-12-18T07:45:00;-3269.20;80.80
23633;DHT22;11993;48.748;9.166;2022-12-18T07:47:29;-3269.10;80.30
23633;DHT22;11993;48.748;9.166;2022-12-18T07:49:55;-3269.60;79.60
23633;DHT22;11993;48.748;9.166;2022-12-18T07:52:21;-3269.80;79.30
23633;DHT22;11993;48.748;9.166;2022-12-18T07:54:46;-3270.50;77.60
23633;DHT22;11993;48.748;9.166;2022-12-18T07:57:14;-3271.50;74.50
23633;DHT22;11993;48.748;9.166;2022-12-18T07:59:41;-3272.60;70.90
23633;DHT22;11993;48.748;9.166;2022-12-18T08:02:06;-3273.60;68.40
23633;DHT22;11993;48.748;9.166;2022-12-18T08:04:32;-3274.10;64.40
23633;DHT22;11993;48.748;9.166;2022-12-18T08:06:57;-3274.60;63.90
23633;DHT22;11993;48.748;9.166;2022-12-18T08:09:23;-3273.50;64.00
23633;DHT22;11993;48.748;9.166;2022-12-18T08:11:48;-3275.00;62.20
23633;DHT22;11993;48.748;9.166;2022-12-18T08:14:14;-3275.30;59.60
23633;DHT22;11993;48.748;9.166;2022-12-18T08:16:40;-3274.60;61.30
23633;DHT22;11993;48.748;9.166;2022-12-18T08:19:05;-3275.90;58.70
23633;DHT22;11993;48.748;9.166;2022-12-18T08:21:31;-3276.00;57.60
23633;DHT22;11993;48.748;9.166;2022-12-18T08:23:59;-3276.30;55.70
23633;DHT22;11993;48.748;9.166;2022-12-18T08:26:27;0.00;53.90
23633;DHT22;11993;48.748;9.166;2022-12-18T08:28:54;-3275.70;56.50
23633;DHT22;11993;48.748;9.166;2022-12-18T08:31:21;-3275.90;56.70
23633;DHT22;11993;48.748;9.166;2022-12-18T08:33:49;-3275.40;58.80
23633;DHT22;11993;48.748;9.166;2022-12-18T08:36:14;-3275.70;57.10
23633;DHT22;11993;48.748;9.166;2022-12-18T08:38:40;-3276.10;56.20
23633;DHT22;11993;48.748;9.166;2022-12-18T08:41:08;0.10;55.40
23633;DHT22;11993;48.748;9.166;2022-12-18T08:43:34;-3275.60;58.90
23633;DHT22;11993;48.748;9.166;2022-12-18T08:46:19;-3276.00;57.10
23633;DHT22;11993;48.748;9.166;2022-12-18T08:48:45;-3275.60;59.80
23633;DHT22;11993;48.748;9.166;2022-12-18T08:51:10;-3275.00;61.50
23633;DHT22;11993;48.748;9.166;2022-12-18T08:53:37;-3275.00;61.80
23633;DHT22;11993;48.748;9.166;2022-12-18T08:58:57;-3274.60;63.10
23633;DHT22;11993;48.748;9.166;2022-12-18T09:01:23;-3274.90;63.90
23633;DHT22;11993;48.748;9.166;2022-12-18T09:03:50;-3274.80;64.40
23633;DHT22;11993;48.748;9.166;2022-12-18T09:06:20;-3274.50;63.50
23633;DHT22;11993;48.748;9.166;2022-12-18T09:08:46;-3274.80;64.00
23633;DHT22;11993;48.748;9.166;2022-12-18T09:11:23;-3275.00;64.50
23633;DHT22;11993;48.748;9.166;2022-12-18T09:13:48;-3275.10;64.00
23633;DHT22;11993;48.748;9.166;2022-12-18T09:16:14;-3275.10;63.00
23633;DHT22;11993;48.748;9.166;2022-12-18T09:18:40;-3274.60;63.90
23633;DHT22;11993;48.748;9.166;2022-12-18T09:21:10;-3275.00;62.40
23633;DHT22;11993;48.748;9.166;2022-12-18T09:23:36;-3274.80;64.50
23633;DHT22;11993;48.748;9.166;2022-12-18T09:26:01;-3275.40;62.30
23633;DHT22;11993;48.748;9.166;2022-12-18T09:28:27;-3276.00;62.10
23633;DHT22;11993;48.748;9.166;2022-12-18T09:30:52;-3275.90;61.70
23633;DHT22;11993;48.748;9.166;2022-12-18T09:33:18;-3276.30;60.70
23633;DHT22;11993;48.748;9.166;2022-12-18T09:35:44;-3276.60;59.90
23633;DHT22;11993;48.748;9.166;2022-12-18T09:38:16;0.00;58.70
23633;DHT22;11993;48.748;9.166;2022-12-18T09:40:49;0.20;58.20
23633;DHT22;11993;48.748;9.166;2022-12-18T09:43:26;0.30;58.60
23633;DHT22;11993;48.748;9.166;2022-12-18T09:45:58;0.00;57.80
23633;DHT22;11993;48.748;9.166;2022-12-18T09:48:40;-3276.40;59.10
23633;DHT22;11993;48.748;9.166;2022-12-18T09:51:17;0.00;59.00
23633;DHT22;11993;48.748;9.166;2022-12-18T09:53:50;-3276.30;58.50
23633;DHT22;11993;48.748;9.166;2022-12-18T09:56:19;-3276.00;59.50
23633;DHT22;11993;48.748;9.166;2022-12-18T09:58:59;-3276.60;60.70
23633;DHT22;11993;48.748;9.166;2022-12-18T10:01:27;-3276.60;60.40
23633;DHT22;11993;48.748;9.166;2022-12-18T10:03:56;0.40;57.40
23633;DHT22;11993;48.748;9.166;2022-12-18T10:12:06;0.70;57.70
23633;DHT22;11993;48.748;9.166;2022-12-18T10:14:54;1.10;56.20
23633;DHT22;11993;48.748;9.166;2022-12-18T10:25:57;0.80;56.80
23633;DHT22;11993;48.748;9.166;2022-12-18T10:28:26;1.10;58.00
23633;DHT22;11993;48.748;9.166;2022-12-18T10:30:52;1.40;56.40
23633;DHT22;11993;48.748;9.166;2022-12-18T10:33:20;2.40;54.20
23633;DHT22;11993;48.748;9.166;2022-12-18T10:35:49;2.80;51.70
23633;DHT22;11993;48.748;9.166;2022-12-18T10:51:21;3.10;52.80
23633;DHT22;11993;48.748;9.166;2022-12-18T10:53:59;3.40;52.40
23633;DHT22;11993;48.748;9.166;2022-12-18T10:56:27;3.70;50.80
23633;DHT22;11993;48.748;9.166;2022-12-18T10:59:05;3.90;49.30
23633;DHT22;11993;48.748;9.166;2022-12-18T11:01:56;3.90;48.60
23633;DHT22;11993;48.748;9.166;2022-12-18T11:04:33;3.40;50.20
23633;DHT22;11993;48.748;9.166;2022-12-18T11:07:08;3.60;51.30
23633;DHT22;11993;48.748;9.166;2022-12-18T11:09:39;4.20;50.30
23633;DHT22;11993;48.748;9.166;2022-12-18T11:12:17;4.80;49.00
23633;DHT22;11993;48.748;9.166;2022-12-18T11:14:51;4.50;47.80
23633;DHT22;11993;48.748;9.166;2022-12-18T11:17:25;4.80;48.20
23633;DHT22;11993;48.748;9.166;2022-12-18T11:23:02;4.60;49.30
23633;DHT22;11993;48.748;9.166;2022-12-18T11:25:32;4.40;48.50
23633;DHT22;11993;48.748;9.166;2022-12-18T11:28:04;4.90;49.10
23633;DHT22;11993;48.748;9.166;2022-12-18T11:33:06;3.60;48.70
23633;DHT22;11993;48.748;9.166;2022-12-18T11:35:47;4.40;49.20
23633;DHT22;11993;48.748;9.166;2022-12-18T11:38:28;4.70;48.80
23633;DHT22;11993;48.748;9.166;2022-12-18T11:43:48;4.80;48.30
23633;DHT22;11993;48.748;9.166;2022-12-18T11:46:23;4.60;48.00
23633;DHT22;11993;48.748;9.166;2022-12-18T11:48:56;4.30;48.60
23633;DHT22;11993;48.748;9.166;2022-12-18T11:51:33;4.40;49.40
23633;DHT22;11993;48.748;9.166;2022-12-18T11:54:01;4.80;48.50
23633;DHT22;11993;48.748;9.166;2022-12-18T11:56:35;5.20;47.10
23633;DHT22;11993;48.748;9.166;2022-12-18T12:15:55;3.10;51.90
23633;DHT22;11993;48.748;9.166;2022-12-18T12:29:38;1.90;54.10
23633;DHT22;11993;48.748;9.166;2022-12-18T12:38:18;1.90;54.20
23633;DHT22;11993;48.748;9.166;2022-12-18T12:41:08;2.40;54.20
23633;DHT22;11993;48.748;9.166;2022-12-18T12:43:57;2.30;54.00
23633;DHT22;11993;48.748;9.166;2022-12-18T12:46:25;1.70;55.50
23633;DHT22;11993;48.748;9.166;2022-12-18T12:49:00;1.80;55.70
23633;DHT22;11993;48.748;9.166;2022-12-18T12:51:36;1.50;56.70
23633;DHT22;11993;48.748;9.166;2022-12-18T12:54:03;1.30;56.20
23633;DHT22;11993;48.748;9.166;2022-12-18T12:57:02;1.90;56.20
23633;DHT22;11993;48.748;9.166;2022-12-18T13:00:17;2.10;56.00
23633;DHT22;11993;48.748;9.166;2022-12-18T13:03:03;2.30;55.60
23633;DHT22;11993;48.748;9.166;2022-12-18T13:05:47;2.60;54.80
23633;DHT22;11993;48.748;9.166;2022-12-18T13:08:28;2.70;54.20
23633;DHT22;11993;48.748;9.166;2022-12-18T13:10:55;2.30;54.60
23633;DHT22;11993;48.748;9.166;2022-12-18T13:13:54;2.40;53.90
23633;DHT22;11993;48.748;9.166;2022-12-18T13:16:22;2.20;54.50
23633;DHT22;11993;48.748;9.166;2022-12-18T13:18:50;2.50;54.70
23633;DHT22;11993;48.748;9.166;2022-12-18T13:23:50;3.30;52.30
23633;DHT22;11993;48.748;9.166;2022-12-18T13:31:11;2.50;54.50
23633;DHT22;11993;48.748;9.166;2022-12-18T13:36:16;2.60;53.00
23633;DHT22;11993;48.748;9.166;2022-12-18T13:39:09;2.70;53.40
23633;DHT22;11993;48.748;9.166;2022-12-18T13:41:35;2.90;53.70
23633;DHT22;11993;48.748;9.166;2022-12-18T13:44:34;2.80;53.70
23633;DHT22;11993;48.748;9.166;2022-12-18T13:47:02;2.50;55.20
23633;DHT22;11993;48.748;9.166;2022-12-18T13:49:40;2.50;55.10
23633;DHT22;11993;48.748;9.166;2022-12-18T13:52:22;2.20;56.30
23633;DHT22;11993;48.748;9.166;2022-12-18T13:54:52;2.10;56.70
23633;DHT22;11993;48.748;9.166;2022-12-18T13:57:32;1.90;57.50
23633;DHT22;11993;48.748;9.166;2022-12-18T14:00:16;2.00;57.50
23633;DHT22;11993;48.748;9.166;2022-12-18T14:02:44;1.60;58.50
23633;DHT22;11993;48.748;9.166;2022-12-18T14:05:31;1.60;58.80
23633;DHT22;11993;48.748;9.166;2022-12-18T14:08:06;1.40;58.70
23633;DHT22;11993;48.748;9.166;2022-12-18T14:10:33;1.00;60.20
23633;DHT22;11993;48.748;9.166;2022-12-18T14:13:05;0.80;61.90
23633;DHT22;11993;48.748;9.166;2022-12-18T14:15:33;1.10;60.90
23633;DHT22;11993;48.748;9.166;2022-12-18T14:18:25;0.90;61.10
23633;DHT22;11993;48.748;9.166;2022-12-18T14:20:54;0.40;63.20
23633;DHT22;11993;48.748;9.166;2022-12-18T14:25:59;0.00;65.50
23633;DHT22;11993;48.748;9.166;2022-12-18T14:28:25;-3276.60;66.10
23633;DHT22;11993;48.748;9.166;2022-12-18T14:30:54;0.10;65.20
23633;DHT22;11993;48.748;9.166;2022-12-18T14:33:23;-3276.50;65.70
23633;DHT22;11993;48.748;9.166;2022-12-18T14:38:37;-3276.40;66.20
23633;DHT22;11993;48.748;9.166;2022-12-18T14:43:32;-3276.50;67.20
23633;DHT22;11993;48.748;9.166;2022-12-18T14:45:59;-3276.50;66.90
23633;DHT22;11993;48.748;9.166;2022-12-18T14:48:38;-3276.30;67.30
23633;DHT22;11993;48.748;9.166;2022-12-18T14:51:25;-3276.20;67.50
23633;DHT22;11993;48.748;9.166;2022-12-18T14:56:22;-3275.80;69.30
23633;DHT22;11993;48.748;9.166;2022-12-18T14:58:59;-3275.90;69.40
23633;DHT22;11993;48.748;9.166;2022-12-18T15:01:31;-3275.50;69.70
23633;DHT22;11993;48.748;9.166;2022-12-18T15:03:59;-3275.50;70.30
23633;DHT22;11993;48.748;9.166;2022-12-18T15:06:34;-3275.30;71.20
23633;DHT22;11993;48.748;9.166;2022-12-18T15:09:21;-3275.00;72.30
23633;DHT22;11993;48.748;9.166;2022-12-18T15:11:47;-3274.90;72.90
23633;DHT22;11993;48.748;9.166;2022-12-18T15:16:58;-3275.10;72.40
23633;DHT22;11993;48.748;9.166;2022-12-18T15:19:37;-3274.90;73.20
23633;DHT22;11993;48.748;9.166;2022-12-18T15:22:03;-3274.50;74.20
23633;DHT22;11993;48.748;9.166;2022-12-18T15:24:31;-3274.40;75.30
23633;DHT22;11993;48.748;9.166;2022-12-18T15:26:58;-3274.40;75.30
23633;DHT22;11993;48.748;9.166;2022-12-18T15:29:23;-3273.80;77.30
23633;DHT22;11993;48.748;9.166;2022-12-18T15:32:05;-3273.70;78.00
23633;DHT22;11993;48.748;9.166;2022-12-18T15:34:32;-3273.80;78.20
23633;DHT22;11993;48.748;9.166;2022-12-18T15:36:59;-3273.90;77.80
23633;DHT22;11993;48.748;9.166;2022-12-18T15:39:24;-3273.80;77.70
23633;DHT22;11993;48.748;9.166;2022-12-18T15:41:50;-3274.10;77.50
23633;DHT22;11993;48.748;9.166;2022-12-18T15:44:34;-3274.00;76.90
23633;DHT22;11993;48.748;9.166;2022-12-18T15:47:00;-3274.10;77.00
23633;DHT22;11993;48.748;9.166;2022-12-18T15:49:26;-3273.90;77.10
23633;DHT22;11993;48.748;9.166;2022-12-18T15:51:54;-3273.90;77.90
23633;DHT22;11993;48.748;9.166;2022-12-18T15:54:22;-3273.70;78.10
23633;DHT22;11993;48.748;9.166;2022-12-18T15:57:11;-3274.00;77.40
23633;DHT22;11993;48.748;9.166;2022-12-18T15:59:50;-3274.00;77.50
23633;DHT22;11993;48.748;9.166;2022-12-18T16:02:18;-3273.60;77.90
23633;DHT22;11993;48.748;9.166;2022-12-18T16:04:44;-3273.60;78.20
23633;DHT22;11993;48.748;9.166;2022-12-18T16:07:11;-3273.70;77.80
23633;DHT22;11993;48.748;9.166;2022-12-18T16:09:37;-3273.60;77.90
23633;DHT22;11993;48.748;9.166;2022-12-18T16:12:04;-3273.40;78.90
23633;DHT22;11993;48.748;9.166;2022-12-18T16:14:31;-3273.40;78.90
23633;DHT22;11993;48.748;9.166;2022-12-18T16:17:01;-3273.50;79.00
23633;DHT22;11993;48.748;9.166;2022-12-18T16:19:28;-3273.60;78.60
23633;DHT22;11993;48.748;9.166;2022-12-18T16:21:55;-3273.40;78.70
23633;DHT22;11993;48.748;9.166;2022-12-18T16:24:23;-3273.40;78.50
23633;DHT22;11993;48.748;9.166;2022-12-18T16:26:49;-3273.50;78.70
23633;DHT22;11993;48.748;9.166;2022-12-18T16:29:17;-3273.60;78.20
23633;DHT22;11993;48.748;9.166;2022-12-18T16:31:43;-3273.40;78.80
23633;DHT22;11993;48.748;9.166;2022-12-18T16:34:32;-3273.30;78.90
23633;DHT22;11993;48.748;9.166;2022-12-18T16:37:01;-3273.30;79.50
23633;DHT22;11993;48.748;9.166;2022-12-18T16:39:27;-3273.10;79.70
23633;DHT22;11993;48.748;9.166;2022-12-18T16:41:53;-3273.10;79.90
23633;DHT22;11993;48.748;9.166;2022-12-18T16:44:19;-3273.10;80.50
23633;DHT22;11993;48.748;9.166;2022-12-18T16:46:46;-3273.20;80.00
23633;DHT22;11993;48.748;9.166;2022-12-18T16:49:12;-3273.40;79.20
23633;DHT22;11993;48.748;9.166;2022-12-18T16:51:38;-3273.40;79.50
23633;DHT22;11993;48.748;9.166;2022-12-18T16:54:04;-3273.20;79.80
23633;DHT22;11993;48.748;9.166;2022-12-18T16:56:30;-3273.20;79.60
23633;DHT22;11993;48.748;9.166;2022-12-18T16:58:57;-3273.10;79.80
23633;DHT22;11993;48.748;9.166;2022-12-18T17:01:24;-3273.10;80.40
23633;DHT22;11993;48.748;9.166;2022-12-18T17:04:02;-3273.10;80.40
23633;DHT22;11993;48.748;9.166;2022-12-18T17:06:30;-3272.90;80.70
23633;DHT22;11993;48.748;9.166;2022-12-18T17:09:02;-3273.00;80.80
23633;DHT22;11993;48.748;9.166;2022-12-18T17:11:29;-3273.00;81.10
23633;DHT22;11993;48.748;9.166;2022-12-18T17:13:56;-3273.10;80.80
23633;DHT22;11993;48.748;9.166;2022-12-18T17:16:22;-3273.10;80.60
23633;DHT22;11993;48.748;9.166;2022-12-18T17:18:48;-3273.10;80.90
23633;DHT22;11993;48.748;9.166;2022-12-18T17:21:14;-3273.10;80.60
23633;DHT22;11993;48.748;9.166;2022-12-18T17:23:41;-3272.90;81.30
23633;DHT22;11993;48.748;9.166;2022-12-18T17:26:08;-3273.00;80.70